createdAt,value
2022-11-18T00:00:24.093Z,15.50
2022-11-18T00:01:23.994Z,15.20
2022-11-18T00:02:23.936Z,15.40
2022-11-18T00:03:23.814Z,16.00
2022-11-18T00:04:23.703Z,15.90
2022-11-18T00:05:23.606Z,15.20
2022-11-18T00:06:23.520Z,16.20
2022-11-18T00:07:23.487Z,16.20
2022-11-18T00:08:23.340Z,16.80
2022-11-18T00:09:23.214Z,15.70
2022-11-18T00:10:23.127Z,15.40
2022-11-18T00:11:23.022Z,15.10
2022-11-18T00:12:22.927Z,14.50
2022-11-18T00:13:22.854Z,14.70
2022-11-18T00:14:22.743Z,14.50
2022-11-18T00:15:26.284Z,13.80
2022-11-18T00:16:23.568Z,13.90
2022-11-18T00:17:22.452Z,14.00
2022-11-18T00:18:22.393Z,14.50
2022-11-18T00:19:22.268Z,14.20
2022-11-18T00:20:22.158Z,14.30
2022-11-18T00:21:22.087Z,14.50
2022-11-18T00:22:26.900Z,14.80
2022-11-18T00:23:22.899Z,14.40
2022-11-18T00:24:21.801Z,14.40
2022-11-18T00:25:21.719Z,14.20
2022-11-18T00:26:21.610Z,13.80
2022-11-18T00:27:21.537Z,14.60
2022-11-18T00:28:21.469Z,14.60
2022-11-18T00:29:21.530Z,14.80
2022-11-18T00:30:21.250Z,14.70
2022-11-18T00:31:21.151Z,14.90
2022-11-18T00:32:21.071Z,14.60
2022-11-18T00:33:20.982Z,15.50
2022-11-18T00:34:20.881Z,14.90
2022-11-18T00:35:20.774Z,14.10
2022-11-18T00:36:20.689Z,14.40
2022-11-18T00:37:20.591Z,14.20
2022-11-18T00:38:20.492Z,13.80
2022-11-18T00:39:20.979Z,14.70
2022-11-18T00:40:20.311Z,14.30
2022-11-18T00:41:20.200Z,14.60
2022-11-18T00:42:20.101Z,14.70
2022-11-18T00:43:19.997Z,14.40
2022-11-18T00:44:19.913Z,14.10
2022-11-18T00:45:19.838Z,14.80
2022-11-18T00:46:19.713Z,14.00
2022-11-18T00:47:19.635Z,14.90
2022-11-18T00:48:19.531Z,14.60
2022-11-18T00:49:19.559Z,14.60
2022-11-18T00:50:19.348Z,14.40
2022-11-18T00:51:19.245Z,14.70
2022-11-18T00:52:19.153Z,14.10
2022-11-18T00:53:19.056Z,14.10
2022-11-18T00:54:18.936Z,14.30
2022-11-18T00:55:18.863Z,14.00
2022-11-18T00:56:18.762Z,14.40
2022-11-18T00:57:18.658Z,13.40
2022-11-18T00:58:18.557Z,13.80
2022-11-18T00:59:18.738Z,13.50
2022-11-18T01:00:18.384Z,13.30
2022-11-18T01:01:18.337Z,13.20
2022-11-18T01:02:18.178Z,13.80
2022-11-18T01:03:18.078Z,13.50
2022-11-18T01:04:17.977Z,13.00
2022-11-18T01:05:17.912Z,13.70
2022-11-18T01:06:17.788Z,13.40
2022-11-18T01:07:17.722Z,13.80
2022-11-18T01:08:17.579Z,13.40
2022-11-18T01:09:17.810Z,13.40
2022-11-18T01:10:17.406Z,14.10
2022-11-18T01:11:17.317Z,13.40
2022-11-18T01:12:17.193Z,13.00
2022-11-18T01:13:17.091Z,12.00
2022-11-18T01:14:16.999Z,11.70
2022-11-18T01:15:16.912Z,10.90
2022-11-18T01:16:16.821Z,10.90
2022-11-18T01:17:16.713Z,10.70
2022-11-18T01:18:16.610Z,10.30
2022-11-18T01:19:16.796Z,10.60
2022-11-18T01:20:16.434Z,10.20
2022-11-18T01:21:16.342Z,10.70
2022-11-18T01:22:16.233Z,11.30
2022-11-18T01:23:16.133Z,10.00
2022-11-18T01:24:16.053Z,9.80
2022-11-18T01:25:15.954Z,10.60
2022-11-18T01:26:15.863Z,10.10
2022-11-18T01:27:15.796Z,11.50
2022-11-18T01:28:18.847Z,11.00
2022-11-18T01:29:16.887Z,11.40
2022-11-18T01:30:15.497Z,11.60
2022-11-18T01:31:15.376Z,11.40
2022-11-18T01:32:24.559Z,11.10
2022-11-18T01:33:16.195Z,10.30
2022-11-18T01:34:15.105Z,10.40
2022-11-18T01:35:14.995Z,11.30
2022-11-18T01:36:14.909Z,10.70
2022-11-18T01:37:14.816Z,11.70
2022-11-18T01:38:14.764Z,10.20
2022-11-18T01:39:14.830Z,10.20
2022-11-18T01:40:14.539Z,10.40
2022-11-18T01:41:14.432Z,11.10
2022-11-18T01:42:14.340Z,10.00
2022-11-18T01:43:14.270Z,10.00
2022-11-18T01:44:14.143Z,9.90
2022-11-18T01:45:14.038Z,9.90
2022-11-18T01:46:13.950Z,10.00
2022-11-18T01:47:13.859Z,10.40
2022-11-18T01:48:13.760Z,9.90
2022-11-18T01:49:13.669Z,10.40
2022-11-18T01:50:21.048Z,9.70
2022-11-18T01:51:13.459Z,9.90
2022-11-18T01:52:13.349Z,10.30
2022-11-18T01:53:13.269Z,9.60
2022-11-18T01:54:13.189Z,9.50
2022-11-18T01:55:13.097Z,9.40
2022-11-18T01:56:13.001Z,9.30
2022-11-18T01:57:12.920Z,9.20
2022-11-18T01:58:12.820Z,9.60
2022-11-18T01:59:12.742Z,9.30
2022-11-18T02:00:12.658Z,10.30
2022-11-18T02:01:12.594Z,10.50
2022-11-18T02:02:12.476Z,11.20
2022-11-18T02:03:12.381Z,11.00
2022-11-18T02:04:12.333Z,10.70
2022-11-18T02:05:12.218Z,10.30
2022-11-18T02:06:12.106Z,10.40
2022-11-18T02:07:12.077Z,9.90
2022-11-18T02:08:11.943Z,9.90
2022-11-18T02:09:11.849Z,10.50
2022-11-18T02:10:11.766Z,10.30
2022-11-18T02:11:11.662Z,10.30
2022-11-18T02:12:11.684Z,10.60
2022-11-18T02:13:11.477Z,10.60
2022-11-18T02:14:11.385Z,10.60
2022-11-18T02:15:11.315Z,10.50
2022-11-18T02:16:11.212Z,10.70
2022-11-18T02:17:11.126Z,11.00
2022-11-18T02:18:11.036Z,10.70
2022-11-18T02:19:10.944Z,10.40
2022-11-18T02:20:10.891Z,10.70
2022-11-18T02:21:10.788Z,11.10
2022-11-18T02:22:10.697Z,10.50
2022-11-18T02:23:10.589Z,10.90
2022-11-18T02:24:10.513Z,11.20
2022-11-18T02:25:10.444Z,11.50
2022-11-18T02:26:10.357Z,11.40
2022-11-18T02:27:10.238Z,12.20
2022-11-18T02:28:10.147Z,11.50
2022-11-18T02:29:10.087Z,13.00
2022-11-18T02:30:09.992Z,11.80
2022-11-18T02:31:09.911Z,12.10
2022-11-18T02:32:09.803Z,11.00
2022-11-18T02:33:09.709Z,11.10
2022-11-18T02:34:09.616Z,11.10
2022-11-18T02:35:09.533Z,11.80
2022-11-18T02:36:09.440Z,12.10
2022-11-18T02:37:09.371Z,12.00
2022-11-18T02:38:09.258Z,12.00
2022-11-18T02:39:09.178Z,11.90
2022-11-18T02:40:09.080Z,12.40
2022-11-18T02:41:09.003Z,12.10
2022-11-18T02:42:08.910Z,11.90
2022-11-18T02:43:08.839Z,11.50
2022-11-18T02:44:08.711Z,11.60
2022-11-18T02:45:08.622Z,11.00
2022-11-18T02:46:08.532Z,11.60
2022-11-18T02:47:08.442Z,10.90
2022-11-18T02:48:08.364Z,11.00
2022-11-18T02:49:08.271Z,11.30
2022-11-18T02:50:08.177Z,12.00
2022-11-18T02:51:08.083Z,11.50
2022-11-18T02:52:07.993Z,12.00
2022-11-18T02:53:07.913Z,11.20
2022-11-18T02:54:07.808Z,10.60
2022-11-18T02:55:07.727Z,11.00
2022-11-18T02:56:07.635Z,11.30
2022-11-18T02:57:07.558Z,11.40
2022-11-18T02:58:07.495Z,11.40
2022-11-18T02:59:07.395Z,11.00
2022-11-18T03:00:07.298Z,11.30
2022-11-18T03:01:07.265Z,10.50
2022-11-18T03:02:07.136Z,11.70
2022-11-18T03:03:07.048Z,11.30
2022-11-18T03:04:06.989Z,11.70
2022-11-18T03:05:06.879Z,12.40
2022-11-18T03:06:06.796Z,12.40
2022-11-18T03:07:06.764Z,11.70
2022-11-18T03:08:06.619Z,12.20
2022-11-18T03:09:06.526Z,12.70
2022-11-18T03:10:06.464Z,11.70
2022-11-18T03:11:06.341Z,11.90
2022-11-18T03:12:06.274Z,11.30
2022-11-18T03:13:06.171Z,11.20
2022-11-18T03:14:06.088Z,11.20
2022-11-18T03:15:06.001Z,11.20
2022-11-18T03:16:05.909Z,10.50
2022-11-18T03:17:05.823Z,10.40
2022-11-18T03:18:05.729Z,10.20
2022-11-18T03:19:05.630Z,10.70
2022-11-18T03:20:05.547Z,10.70
2022-11-18T03:21:05.462Z,10.50
2022-11-18T03:22:05.345Z,10.70
2022-11-18T03:23:05.268Z,10.50
2022-11-18T03:24:05.180Z,10.70
2022-11-18T03:25:05.088Z,10.90
2022-11-18T03:26:04.988Z,10.20
2022-11-18T03:27:04.882Z,10.90
2022-11-18T03:28:04.813Z,9.80
2022-11-18T03:29:04.673Z,10.40
2022-11-18T03:30:04.610Z,11.10
2022-11-18T03:31:04.497Z,11.60
2022-11-18T03:32:04.375Z,10.60
2022-11-18T03:33:04.285Z,10.70
2022-11-18T03:34:04.197Z,11.20
2022-11-18T03:35:04.087Z,11.10
2022-11-18T03:36:04.013Z,10.70
2022-11-18T03:37:09.051Z,11.10
2022-11-18T03:38:04.791Z,11.30
2022-11-18T03:39:03.686Z,10.70
2022-11-18T03:40:03.596Z,10.90
2022-11-18T03:41:03.493Z,10.40
2022-11-18T03:42:03.416Z,11.50
2022-11-18T03:43:03.302Z,11.00
2022-11-18T03:44:03.215Z,11.60
2022-11-18T03:45:03.125Z,11.30
2022-11-18T03:46:03.035Z,11.80
2022-11-18T03:47:02.947Z,11.10
2022-11-18T03:48:02.838Z,11.00
2022-11-18T03:49:02.751Z,10.70
2022-11-18T03:50:02.645Z,11.50
2022-11-18T03:51:02.550Z,12.20
2022-11-18T03:52:02.462Z,11.50
2022-11-18T03:53:02.350Z,11.70
2022-11-18T03:54:02.270Z,10.40
2022-11-18T03:55:02.167Z,10.50
2022-11-18T03:56:02.072Z,10.10
2022-11-18T03:57:01.970Z,9.60
2022-11-18T03:58:01.860Z,9.70
2022-11-18T03:59:01.749Z,9.80
2022-11-18T04:00:01.664Z,10.00
2022-11-18T04:01:01.566Z,10.90
2022-11-18T04:02:01.509Z,10.30
2022-11-18T04:03:01.391Z,11.20
2022-11-18T04:04:01.315Z,10.50
2022-11-18T04:05:01.172Z,10.50
2022-11-18T04:06:01.062Z,10.00
2022-11-18T04:07:01.040Z,9.70
2022-11-18T04:08:00.912Z,10.30
2022-11-18T04:09:00.783Z,10.00
2022-11-18T04:10:00.699Z,9.90
2022-11-18T04:11:00.593Z,10.00
2022-11-18T04:12:00.513Z,9.50
2022-11-18T04:13:05.806Z,9.60
2022-11-18T04:14:01.315Z,9.10
2022-11-18T04:15:00.238Z,10.10
2022-11-18T04:16:00.123Z,10.50
2022-11-18T04:17:00.033Z,12.70
2022-11-18T04:17:59.935Z,12.60
2022-11-18T04:19:05.720Z,10.70
2022-11-18T04:20:00.875Z,10.20
2022-11-18T04:20:59.625Z,10.30
2022-11-18T04:21:59.536Z,9.80
2022-11-18T04:22:59.435Z,9.40
2022-11-18T04:23:59.352Z,10.20
2022-11-18T04:24:59.226Z,9.60
2022-11-18T04:25:59.173Z,10.10
2022-11-18T04:26:59.048Z,10.40
2022-11-18T04:27:58.972Z,10.30
2022-11-18T04:28:58.865Z,9.40
2022-11-18T04:29:58.778Z,10.00
2022-11-18T04:30:58.682Z,9.90
2022-11-18T04:31:58.587Z,10.60
2022-11-18T04:32:58.491Z,10.30
2022-11-18T04:33:58.379Z,9.80
2022-11-18T04:34:58.310Z,10.10
2022-11-18T04:35:58.209Z,10.00
2022-11-18T04:36:58.119Z,10.00
2022-11-18T04:37:58.033Z,10.20
2022-11-18T04:38:57.941Z,11.10
2022-11-18T04:39:57.859Z,10.50
2022-11-18T04:40:57.760Z,11.40
2022-11-18T04:41:57.722Z,11.40
2022-11-18T04:42:57.570Z,10.50
2022-11-18T04:43:57.489Z,10.60
2022-11-18T04:44:57.412Z,11.40
2022-11-18T04:45:57.310Z,10.80
2022-11-18T04:46:57.219Z,10.60
2022-11-18T04:48:03.062Z,10.40
2022-11-18T04:48:58.042Z,10.60
2022-11-18T04:49:56.952Z,10.30
2022-11-18T04:50:56.840Z,10.10
2022-11-18T04:51:56.734Z,11.10
2022-11-18T04:52:56.619Z,10.80
2022-11-18T04:53:56.532Z,10.80
2022-11-18T04:54:56.439Z,11.40
2022-11-18T04:55:56.333Z,10.40
2022-11-18T04:56:56.234Z,11.40
2022-11-18T04:57:56.125Z,10.40
2022-11-18T04:58:56.055Z,10.70
2022-11-18T04:59:55.943Z,9.80
2022-11-18T05:00:55.885Z,10.30
2022-11-18T05:01:55.759Z,10.00
2022-11-18T05:02:55.695Z,10.70
2022-11-18T05:03:55.557Z,10.30
2022-11-18T05:04:55.446Z,11.10
2022-11-18T05:05:55.375Z,10.50
2022-11-18T05:06:55.300Z,10.30
2022-11-18T05:07:55.158Z,10.40
2022-11-18T05:08:55.067Z,10.30
2022-11-18T05:09:54.968Z,10.70
2022-11-18T05:10:54.860Z,10.40
2022-11-18T05:11:54.806Z,10.40
2022-11-18T05:12:54.666Z,11.10
2022-11-18T05:13:54.583Z,11.20
2022-11-18T05:14:54.469Z,10.20
2022-11-18T05:15:54.376Z,11.50
2022-11-18T05:16:54.298Z,11.10
2022-11-18T05:17:54.197Z,11.30
2022-11-18T05:18:54.096Z,11.40
2022-11-18T05:19:54.016Z,11.70
2022-11-18T05:20:53.957Z,11.20
2022-11-18T05:21:53.809Z,12.30
2022-11-18T05:22:53.748Z,11.70
2022-11-18T05:23:53.629Z,12.10
2022-11-18T05:24:53.528Z,11.90
2022-11-18T05:25:57.031Z,12.00
2022-11-18T05:26:54.319Z,12.90
2022-11-18T05:27:53.260Z,11.40
2022-11-18T05:28:53.141Z,12.40
2022-11-18T05:29:53.050Z,12.00
2022-11-18T05:30:52.944Z,11.80
2022-11-18T05:31:52.854Z,12.00
2022-11-18T05:32:52.765Z,11.50
2022-11-18T05:33:52.680Z,10.50
2022-11-18T05:34:52.574Z,11.10
2022-11-18T05:35:55.079Z,10.90
2022-11-18T05:36:52.377Z,12.00
2022-11-18T05:37:52.291Z,12.50
2022-11-18T05:38:52.233Z,14.40
2022-11-18T05:39:52.089Z,15.10
2022-11-18T05:40:51.997Z,14.30
2022-11-18T05:41:51.894Z,13.80
2022-11-18T05:42:51.808Z,13.10
2022-11-18T05:43:51.738Z,12.80
2022-11-18T05:44:57.530Z,15.00
2022-11-18T05:45:52.515Z,15.30
2022-11-18T05:46:51.411Z,15.50
2022-11-18T05:47:51.306Z,15.60
2022-11-18T05:48:51.244Z,13.40
2022-11-18T05:49:51.138Z,13.90
2022-11-18T05:50:51.036Z,13.90
2022-11-18T05:51:50.945Z,13.00
2022-11-18T05:52:50.867Z,13.00
2022-11-18T05:53:50.760Z,11.60
2022-11-18T05:54:50.689Z,12.00
2022-11-18T05:55:50.587Z,12.10
2022-11-18T05:56:50.500Z,16.00
2022-11-18T05:57:50.391Z,17.30
2022-11-18T05:58:50.298Z,21.10
2022-11-18T05:59:50.200Z,21.20
2022-11-18T06:00:50.122Z,19.00
2022-11-18T06:01:50.055Z,17.20
2022-11-18T06:02:50.009Z,19.10
2022-11-18T06:03:49.820Z,19.90
2022-11-18T06:04:49.730Z,20.00
2022-11-18T06:05:49.650Z,19.50
2022-11-18T06:06:49.541Z,18.60
2022-11-18T06:07:49.446Z,18.80
2022-11-18T06:08:49.349Z,18.10
2022-11-18T06:09:49.256Z,18.30
2022-11-18T06:10:49.169Z,19.60
2022-11-18T06:11:49.066Z,17.70
2022-11-18T06:12:48.961Z,17.60
2022-11-18T06:13:48.881Z,19.10
2022-11-18T06:14:48.796Z,18.10
2022-11-18T06:15:48.714Z,16.40
2022-11-18T06:16:48.611Z,17.20
2022-11-18T06:17:48.505Z,15.30
2022-11-18T06:18:48.394Z,15.30
2022-11-18T06:19:48.315Z,13.80
2022-11-18T06:20:48.249Z,14.70
2022-11-18T06:21:48.124Z,14.50
2022-11-18T06:22:48.035Z,14.90
2022-11-18T06:23:47.968Z,14.90
2022-11-18T06:24:47.854Z,15.20
2022-11-18T06:25:47.776Z,16.60
2022-11-18T06:26:47.735Z,15.70
2022-11-18T06:27:47.604Z,16.00
2022-11-18T06:28:47.486Z,16.80
2022-11-18T06:29:47.408Z,17.50
2022-11-18T06:30:47.306Z,18.30
2022-11-18T06:31:47.235Z,16.50
2022-11-18T06:32:47.137Z,17.60
2022-11-18T06:33:47.037Z,17.30
2022-11-18T06:34:46.928Z,24.80
2022-11-18T06:35:46.823Z,25.10
2022-11-18T06:36:46.720Z,20.00
2022-11-18T06:37:46.657Z,17.40
2022-11-18T06:38:46.524Z,18.10
2022-11-18T06:39:46.438Z,18.60
2022-11-18T06:40:46.383Z,18.00
2022-11-18T06:41:46.247Z,18.20
2022-11-18T06:42:46.295Z,16.60
2022-11-18T06:43:46.081Z,18.70
2022-11-18T06:44:46.139Z,19.00
2022-11-18T06:45:45.889Z,19.60
2022-11-18T06:46:45.831Z,24.20
2022-11-18T06:47:45.721Z,26.40
2022-11-18T06:48:45.620Z,27.90
2022-11-18T06:49:45.510Z,22.50
2022-11-18T06:50:45.446Z,22.90
2022-11-18T06:51:45.335Z,24.10
2022-11-18T06:52:45.249Z,20.40
2022-11-18T06:53:45.162Z,19.10
2022-11-18T06:54:45.043Z,20.00
2022-11-18T06:55:44.972Z,18.80
2022-11-18T06:56:44.851Z,18.60
2022-11-18T06:57:44.763Z,16.80
2022-11-18T06:58:44.694Z,18.50
2022-11-18T06:59:44.591Z,16.90
2022-11-18T07:00:44.552Z,20.20
2022-11-18T07:01:44.415Z,18.10
2022-11-18T07:02:44.316Z,17.30
2022-11-18T07:03:44.264Z,18.40
2022-11-18T07:04:44.164Z,17.80
2022-11-18T07:05:44.042Z,18.90
2022-11-18T07:06:43.954Z,17.50
2022-11-18T07:07:43.887Z,18.00
2022-11-18T07:08:43.776Z,16.70
2022-11-18T07:09:43.717Z,15.60
2022-11-18T07:10:43.580Z,16.50
2022-11-18T07:11:43.480Z,16.20
2022-11-18T07:12:43.386Z,15.40
2022-11-18T07:13:43.823Z,15.70
2022-11-18T07:14:43.210Z,16.00
2022-11-18T07:15:43.145Z,16.80
2022-11-18T07:16:42.997Z,17.20
2022-11-18T07:17:42.913Z,17.90
2022-11-18T07:18:42.819Z,16.20
2022-11-18T07:19:42.747Z,18.20
2022-11-18T07:20:42.627Z,17.40
2022-11-18T07:21:42.537Z,17.50
2022-11-18T07:22:42.430Z,19.20
2022-11-18T07:23:42.370Z,20.00
2022-11-18T07:24:42.239Z,19.30
2022-11-18T07:25:45.249Z,18.30
2022-11-18T07:26:42.073Z,18.80
2022-11-18T07:27:41.940Z,19.00
2022-11-18T07:28:41.861Z,19.60
2022-11-18T07:29:41.750Z,19.20
2022-11-18T07:30:41.670Z,18.70
2022-11-18T07:31:41.563Z,18.50
2022-11-18T07:32:41.471Z,19.10
2022-11-18T07:33:41.372Z,17.70
2022-11-18T07:34:41.415Z,18.40
2022-11-18T07:35:41.201Z,17.80
2022-11-18T07:36:41.130Z,16.90
2022-11-18T07:37:40.981Z,16.50
2022-11-18T07:38:40.902Z,15.80
2022-11-18T07:39:40.804Z,16.50
2022-11-18T07:40:40.724Z,15.90
2022-11-18T07:41:40.614Z,17.50
2022-11-18T07:42:40.516Z,18.20
2022-11-18T07:43:40.428Z,19.20
2022-11-18T07:44:40.327Z,17.70
2022-11-18T07:45:40.251Z,18.30
2022-11-18T07:46:40.169Z,18.90
2022-11-18T07:47:40.037Z,18.80
2022-11-18T07:48:39.953Z,19.70
2022-11-18T07:50:32.575Z,19.90
2022-11-18T07:51:32.535Z,19.50
2022-11-18T07:52:32.487Z,19.90
2022-11-18T07:53:32.446Z,19.40
2022-11-18T07:54:32.407Z,20.00
2022-11-18T07:55:32.460Z,19.40
2022-11-18T07:56:32.337Z,19.20
2022-11-18T07:57:32.315Z,19.80
2022-11-18T07:58:32.390Z,18.50
2022-11-18T07:59:32.207Z,19.00
2022-11-18T08:00:32.170Z,18.10
2022-11-18T08:01:32.151Z,18.80
2022-11-18T08:02:32.081Z,17.50
2022-11-18T08:03:32.038Z,17.70
2022-11-18T08:04:31.988Z,16.70
2022-11-18T08:05:31.995Z,17.00
2022-11-18T08:06:31.911Z,16.60
2022-11-18T08:07:31.964Z,16.50
2022-11-18T08:08:31.868Z,16.90
2022-11-18T08:09:31.799Z,16.20
2022-11-18T08:10:31.831Z,16.40
2022-11-18T08:11:31.712Z,16.90
2022-11-18T08:12:31.677Z,18.50
2022-11-18T08:13:31.651Z,20.00
2022-11-18T08:14:31.601Z,21.10
2022-11-18T08:15:31.571Z,20.80
2022-11-18T08:16:31.514Z,18.10
2022-11-18T08:17:31.483Z,18.20
2022-11-18T08:18:31.454Z,19.30
2022-11-18T08:19:31.414Z,17.80
2022-11-18T08:20:31.374Z,20.10
2022-11-18T08:21:31.313Z,17.90
2022-11-18T08:22:31.281Z,17.30
2022-11-18T08:23:33.953Z,18.40
2022-11-18T08:24:32.222Z,18.10
2022-11-18T08:25:31.145Z,18.40
2022-11-18T08:26:31.123Z,19.00
2022-11-18T08:27:31.078Z,19.60
2022-11-18T08:28:31.124Z,20.00
2022-11-18T08:29:31.041Z,19.00
2022-11-18T08:30:30.944Z,19.00
2022-11-18T08:31:30.903Z,20.20
2022-11-18T08:32:30.866Z,32.40
2022-11-18T08:33:30.823Z,23.90
2022-11-18T08:34:30.792Z,27.20
2022-11-18T08:35:30.746Z,26.60
2022-11-18T08:36:30.696Z,28.20
2022-11-18T08:37:30.657Z,26.90
2022-11-18T08:38:30.617Z,25.50
2022-11-18T08:39:30.590Z,25.90
2022-11-18T08:40:30.548Z,30.10
2022-11-18T08:41:30.497Z,30.00
2022-11-18T08:42:34.289Z,34.60
2022-11-18T08:43:30.420Z,35.90
2022-11-18T08:44:30.396Z,27.10
2022-11-18T08:45:30.372Z,27.90
2022-11-18T08:46:30.308Z,32.00
2022-11-18T08:47:30.347Z,30.10
2022-11-18T08:48:30.269Z,25.90
2022-11-18T08:49:32.564Z,23.10
2022-11-18T08:50:30.170Z,19.30
2022-11-18T08:51:30.111Z,17.80
2022-11-18T08:52:30.072Z,16.80
2022-11-18T08:53:30.130Z,17.00
2022-11-18T08:54:29.991Z,15.40
2022-11-18T08:55:29.956Z,17.80
2022-11-18T08:56:29.919Z,17.90
2022-11-18T08:57:29.870Z,20.10
2022-11-18T08:58:29.831Z,22.70
2022-11-18T08:59:29.810Z,20.20
2022-11-18T09:00:29.762Z,21.80
2022-11-18T09:01:29.783Z,23.40
2022-11-18T09:02:29.694Z,25.90
2022-11-18T09:03:31.953Z,26.00
2022-11-18T09:04:29.613Z,30.10
2022-11-18T09:05:29.576Z,27.90
2022-11-18T09:06:29.545Z,37.10
2022-11-18T09:07:29.593Z,43.40
2022-11-18T09:08:29.464Z,44.40
2022-11-18T09:09:29.413Z,39.90
2022-11-18T09:10:29.396Z,20.70
2022-11-18T09:11:29.358Z,19.40
2022-11-18T09:12:29.337Z,17.20
2022-11-18T09:13:49.732Z,18.20
2022-11-18T09:15:12.422Z,20.00
2022-11-18T09:15:30.206Z,19.70
2022-11-18T09:16:29.180Z,21.70
2022-11-18T09:17:29.145Z,34.00
2022-11-18T09:18:29.221Z,30.70
2022-11-18T09:19:46.767Z,33.90
2022-11-18T09:20:30.027Z,34.60
2022-11-18T09:21:28.982Z,33.50
2022-11-18T09:22:28.946Z,35.00
2022-11-18T09:23:28.917Z,29.90
2022-11-18T09:24:28.869Z,29.70
2022-11-18T09:25:28.829Z,27.50
2022-11-18T09:26:28.789Z,29.20
2022-11-18T09:27:28.738Z,30.50
2022-11-18T09:28:28.709Z,32.00
2022-11-18T09:29:28.738Z,26.40
2022-11-18T09:30:28.640Z,24.20
2022-11-18T09:31:28.623Z,22.90
2022-11-18T09:32:28.560Z,25.00
2022-11-18T09:33:28.514Z,24.50
2022-11-18T09:34:28.483Z,22.70
2022-11-18T09:35:28.430Z,22.90
2022-11-18T09:36:28.380Z,23.20
2022-11-18T09:37:28.367Z,23.40
2022-11-18T09:38:28.313Z,22.30
2022-11-18T09:39:28.280Z,20.90
2022-11-18T09:40:28.220Z,21.40
2022-11-18T09:41:28.238Z,21.20
2022-11-18T09:42:28.138Z,21.30
2022-11-18T09:43:28.093Z,21.00
2022-11-18T09:44:28.073Z,20.20
2022-11-18T09:45:28.004Z,19.60
2022-11-18T09:46:27.964Z,19.90
2022-11-18T09:47:27.915Z,19.30
2022-11-18T09:48:27.893Z,19.90
2022-11-18T09:49:27.852Z,19.80
2022-11-18T09:50:48.364Z,20.40
2022-11-18T09:51:28.757Z,21.20
2022-11-18T09:52:32.705Z,21.10
2022-11-18T09:53:28.688Z,20.00
2022-11-18T09:54:27.636Z,19.70
2022-11-18T09:55:27.598Z,20.40
2022-11-18T09:56:27.599Z,20.40
2022-11-18T09:57:27.509Z,19.80
2022-11-18T09:58:27.469Z,21.20
2022-11-18T09:59:27.424Z,21.20
2022-11-18T10:00:27.401Z,19.10
2022-11-18T10:01:27.894Z,18.20
2022-11-18T10:02:27.298Z,18.10
2022-11-18T10:03:27.249Z,18.60
2022-11-18T10:04:27.231Z,17.60
2022-11-18T10:05:27.170Z,18.20
2022-11-18T10:06:27.120Z,17.90
2022-11-18T10:07:27.092Z,18.20
2022-11-18T10:08:27.059Z,18.70
2022-11-18T10:09:26.983Z,18.60
2022-11-18T10:10:26.967Z,18.70
2022-11-18T10:11:26.921Z,18.00
2022-11-18T10:12:26.861Z,18.50
2022-11-18T10:13:26.821Z,18.20
2022-11-18T10:14:26.789Z,18.40
2022-11-18T10:15:26.721Z,18.80
2022-11-18T10:16:26.684Z,19.10
2022-11-18T10:17:26.661Z,18.20
2022-11-18T10:18:57.989Z,19.20
2022-11-18T10:19:27.541Z,18.50
2022-11-18T10:20:26.522Z,20.00
2022-11-18T10:21:26.483Z,18.60
2022-11-18T10:22:26.430Z,19.20
2022-11-18T10:23:26.363Z,19.40
2022-11-18T10:24:26.348Z,19.40
2022-11-18T10:25:26.369Z,19.00
2022-11-18T10:26:26.254Z,19.10
2022-11-18T10:27:26.204Z,19.50
2022-11-18T10:28:26.169Z,19.10
2022-11-18T10:29:26.115Z,18.60
2022-11-18T10:30:26.074Z,17.00
2022-11-18T10:31:26.026Z,18.20
2022-11-18T10:32:26.007Z,17.50
2022-11-18T10:33:25.973Z,17.50
2022-11-18T10:34:25.896Z,16.70
2022-11-18T10:35:25.859Z,18.00
2022-11-18T10:36:25.819Z,15.70
2022-11-18T10:37:52.606Z,15.20
2022-11-18T10:38:26.727Z,13.60
2022-11-18T10:39:25.685Z,15.10
2022-11-18T10:40:25.684Z,14.00
2022-11-18T10:41:25.593Z,14.60
2022-11-18T10:42:25.547Z,15.20
2022-11-18T10:43:25.518Z,17.30
2022-11-18T10:44:25.451Z,16.00
2022-11-18T10:45:25.410Z,15.30
2022-11-18T10:46:25.378Z,14.30
2022-11-18T10:47:25.318Z,16.30
2022-11-18T10:48:25.315Z,16.50
2022-11-18T10:49:25.231Z,16.60
2022-11-18T10:50:25.198Z,17.20
2022-11-18T10:51:25.163Z,17.30
2022-11-18T10:52:25.124Z,17.70
2022-11-18T10:53:25.071Z,17.50
2022-11-18T10:54:25.038Z,10.20
2022-11-18T10:55:25.003Z,8.20
2022-11-18T10:56:24.952Z,8.40
2022-11-18T10:57:24.890Z,5.00
2022-11-18T10:58:24.948Z,5.70
2022-11-18T10:59:24.864Z,5.90
2022-11-18T11:00:24.755Z,6.20
2022-11-18T11:01:24.781Z,5.60
2022-11-18T11:02:24.671Z,5.90
2022-11-18T11:03:24.632Z,5.60
2022-11-18T11:04:24.584Z,5.20
2022-11-18T11:05:24.535Z,5.10
2022-11-18T11:06:24.522Z,5.80
2022-11-18T11:07:24.491Z,5.90
2022-11-18T11:08:35.811Z,5.40
2022-11-18T11:09:25.354Z,5.50
2022-11-18T11:10:24.283Z,5.50
2022-11-18T11:11:24.246Z,5.20
2022-11-18T11:12:24.189Z,5.30
2022-11-18T11:13:24.145Z,5.20
2022-11-18T11:14:24.094Z,5.80
2022-11-18T11:15:24.057Z,4.90
2022-11-18T11:16:26.247Z,4.00
2022-11-18T11:17:24.052Z,3.70
2022-11-18T11:18:23.910Z,3.20
2022-11-18T11:19:23.876Z,3.00
2022-11-18T11:20:23.861Z,2.90
2022-11-18T11:21:23.794Z,2.70
2022-11-18T11:22:23.770Z,3.00
2022-11-18T11:23:24.015Z,2.70
2022-11-18T11:24:23.669Z,3.20
2022-11-18T11:25:24.061Z,3.30
2022-11-18T11:28:24.479Z,2.60
2022-11-18T11:29:23.429Z,2.50
2022-11-18T11:30:23.426Z,3.00
2022-11-18T11:31:23.358Z,2.50
2022-11-18T11:32:23.295Z,2.90
2022-11-18T11:33:23.260Z,3.10
2022-11-18T11:34:23.203Z,3.00
2022-11-18T11:35:23.175Z,3.20
2022-11-18T11:36:23.132Z,3.10
2022-11-18T11:37:23.089Z,3.30
2022-11-18T11:38:23.012Z,3.50
2022-11-18T11:39:22.987Z,4.10
2022-11-18T11:40:22.919Z,3.80
2022-11-18T11:41:22.908Z,4.00
2022-11-18T11:42:22.836Z,3.90
2022-11-18T11:43:22.783Z,4.20
2022-11-18T11:44:22.746Z,4.00
2022-11-18T11:45:22.684Z,4.40
2022-11-18T11:46:22.635Z,4.60
2022-11-18T11:47:22.584Z,4.50
2022-11-18T11:48:22.533Z,4.70
2022-11-18T11:49:22.490Z,4.70
2022-11-18T11:50:22.434Z,5.00
2022-11-18T11:51:22.394Z,5.20
2022-11-18T11:52:22.356Z,4.90
2022-11-18T11:53:22.304Z,5.80
2022-11-18T11:54:22.248Z,6.10
2022-11-18T11:55:22.224Z,5.80
2022-11-18T11:56:22.998Z,6.10
2022-11-18T11:57:22.137Z,5.60
2022-11-18T11:58:22.088Z,6.30
2022-11-18T11:59:22.031Z,6.60
2022-11-18T12:00:21.967Z,6.70
2022-11-18T12:01:21.929Z,6.00
2022-11-18T12:02:21.993Z,7.00
2022-11-18T12:03:21.924Z,5.60
2022-11-18T12:04:21.799Z,5.30
2022-11-18T12:05:21.739Z,6.30
2022-11-18T12:06:21.707Z,7.50
2022-11-18T12:07:21.775Z,8.10
2022-11-18T12:08:21.622Z,7.60
2022-11-18T12:09:21.572Z,8.00
2022-11-18T12:10:21.515Z,8.00
2022-11-18T12:11:21.469Z,7.30
2022-11-18T12:12:21.403Z,7.20
2022-11-18T12:13:21.402Z,7.80
2022-11-18T12:14:21.301Z,7.50
2022-11-18T12:15:21.260Z,7.00
2022-11-18T12:16:21.243Z,7.40
2022-11-18T12:17:21.182Z,6.80
2022-11-18T12:18:21.149Z,7.30
2022-11-18T12:19:21.474Z,7.40
2022-11-18T12:20:21.033Z,7.80
2022-11-18T12:21:21.004Z,7.20
2022-11-18T12:22:20.956Z,7.00
2022-11-18T12:23:20.905Z,7.30
2022-11-18T12:24:20.877Z,7.70
2022-11-18T12:25:20.845Z,8.70
2022-11-18T12:26:20.769Z,7.90
2022-11-18T12:27:20.725Z,7.60
2022-11-18T12:28:20.685Z,7.40
2022-11-18T12:29:20.888Z,7.00
2022-11-18T12:30:20.633Z,6.50
2022-11-18T12:31:20.568Z,7.60
2022-11-18T12:32:20.485Z,8.20
2022-11-18T12:33:20.457Z,7.70
2022-11-18T12:34:20.407Z,6.50
2022-11-18T12:35:20.367Z,7.00
2022-11-18T12:36:20.317Z,6.90
2022-11-18T12:37:20.264Z,7.00
2022-11-18T12:38:20.201Z,6.70
2022-11-18T12:39:20.177Z,7.40
2022-11-18T12:40:20.110Z,6.70
2022-11-18T12:41:20.111Z,7.00
2022-11-18T12:42:20.030Z,7.00
2022-11-18T12:43:19.976Z,7.10
2022-11-18T12:44:19.919Z,7.00
2022-11-18T12:45:19.899Z,7.40
2022-11-18T12:46:19.830Z,6.90
2022-11-18T12:47:19.814Z,7.60
2022-11-18T12:48:22.963Z,7.40
2022-11-18T12:49:20.700Z,7.80
2022-11-18T12:50:19.631Z,6.80
2022-11-18T12:51:19.595Z,6.80
2022-11-18T12:52:19.532Z,6.70
2022-11-18T12:53:19.503Z,6.10
2022-11-18T12:54:19.442Z,6.30
2022-11-18T12:55:19.413Z,6.80
2022-11-18T12:56:19.370Z,6.30
2022-11-18T12:57:19.305Z,6.50
2022-11-18T12:58:19.255Z,6.50
2022-11-18T12:59:19.738Z,6.30